• Join FlightAware (Why Join?)
  • Login
  • US Flag 
09:27AM EDT


 

Airport Tracker/Info


-or-


 

Live Flight TrackerFlight Track Log ✈ N333HC ✈ 2013年 09月 28日 ✈ KGGG - KMDD

Flight Track Log - Related Links

Times and Time Zones

All times are in EDT time to prevent confusion due to time zone crossing. See the N333HC flight status page for this flight to view local times or setup timezone preferences in your user account.

Time Position Orientation Groundspeed Altitude Reporting Facility
EDT Latitude Longitude Course Direction KTS MPH feet Rate Location/Type
11:19AM 32.3328 -94.8219 270° West 180 207 8,100  Level Fort Worth Center
11:20AM 32.3342 -94.8808 272° West 180 207 9,900 1,620 Climbing Fort Worth Center
11:21AM 32.3765 -95.0984 266° West  Level Estimated
11:21AM 32.3333 -94.9425 269° West 175 201 11,400  Level Fort Worth Center
11:22AM 32.3730 -95.1756 267° West  Level FlightAware Approximate
11:22AM 32.3322 -95.0039 269° West 193 222 12,800  Level Fort Worth Center
11:23AM 32.3713 -95.2530 270° West  Level Estimated
11:23AM 32.3356 -95.0653 274° West 199 229 14,100  Level Fort Worth Center
11:24AM 32.3325 -95.1317 267° West 199 229 15,500 1,200 Climbing Fort Worth Center
11:25AM 32.3317 -95.1981 269° West 199 229 16,600 1,140 Climbing Fort Worth Center
11:26AM 32.3328 -95.2619 271° West 199 229 17,800 1,140 Climbing Fort Worth Center
11:27AM 32.3297 -95.3333 267° West 199 229 18,900 1,080 Climbing Fort Worth Center
11:28AM 32.3289 -95.4022 269° West 209 241 20,000 1,080 Climbing Fort Worth Center
11:29AM 32.3258 -95.4736 267° West 216 249 21,100 900 Climbing Fort Worth Center
11:30AM 32.3247 -95.5425 269° West 216 249 21,900 780 Climbing Fort Worth Center
11:31AM 32.3258 -95.6136 271° West 216 249 22,700 720 Climbing Fort Worth Center
11:32AM 32.3247 -95.6875 269° West 216 249 23,400 660 Climbing Fort Worth Center
11:33AM 32.3217 -95.7614 267° West 216 249 24,100 600 Climbing Fort Worth Center
11:34AM 32.3206 -95.8375 269° West 221 254 24,700 600 Climbing Fort Worth Center
11:35AM 32.3192 -95.9114 269° West 227 261 25,300 540 Climbing Fort Worth Center
11:36AM 32.3181 -95.9875 269° West 232 267 25,800 480 Climbing Fort Worth Center
11:37AM 32.3167 -96.0639 269° West 237 273 26,300 420 Climbing Fort Worth Center
11:38AM 32.3156 -96.1400 269° West 237 273 26,700 300 Climbing Fort Worth Center
11:39AM 32.3142 -96.2161 269° West 237 273 27,000 300 Climbing Fort Worth Center
11:40AM 32.3108 -96.2950 267° West 237 273 27,300 240 Climbing Fort Worth Center
11:41AM 32.3092 -96.3736 269° West 237 273 27,500 300 Climbing Fort Worth Center
11:42AM 32.3058 -96.4500 267° West 237 273 27,900 240 Climbing Fort Worth Center
11:43AM 32.3042 -96.5311 269° West 237 273 28,000  Climbing Fort Worth Center
11:44AM 32.3006 -96.6147 267° West 242 278 28,000  Level Fort Worth Center
11:45AM 32.2989 -96.7006 269° West 253 291 28,000  Level Fort Worth Center
11:46AM 32.2975 -96.7842 269° West 253 291 28,000  Level Fort Worth Center
11:47AM 32.2936 -96.8703 267° West 259 298 28,000  Level Fort Worth Center
11:48AM 32.2919 -96.9539 269° West 259 298 28,000  Level Fort Worth Center
11:49AM 32.2900 -97.0422 269° West 264 304 28,000  Level Fort Worth Center
11:50AM 32.2881 -97.1258 268° West 264 304 28,000  Level Fort Worth Center
11:51AM 32.2842 -97.2119 267° West 264 304 28,000  Level Fort Worth Center
11:52AM 32.2822 -97.2956 268° West 264 304 28,000  Level Fort Worth Center
11:53AM 32.2800 -97.3839 268° West 269 310 28,000  Level Fort Worth Center
11:54AM 32.2781 -97.4700 268° West 269 310 28,000  Level Fort Worth Center
11:55AM 32.2739 -97.5583 267° West 269 310 28,000  Level Fort Worth Center
11:56AM 32.2717 -97.6444 268° West 269 310 28,000  Level Fort Worth Center
11:57AM 32.2672 -97.7303 267° West 269 310 28,000  Level Fort Worth Center
11:58AM 32.2647 -97.8164 268° West 269 310 28,000  Level Fort Worth Center
11:59AM 32.2625 -97.9047 268° West 269 310 28,000  Level Fort Worth Center
12:00PM 32.2578 -97.9883 266° West 269 310 28,000  Level Fort Worth Center
12:01PM 32.2553 -98.0742 268° West 269 310 28,000  Level Fort Worth Center
12:02PM 32.2528 -98.1628 268° West 269 310 28,000  Level Fort Worth Center
12:03PM 32.2481 -98.2511 266° West 269 310 28,000  Level Fort Worth Center
12:04PM 32.2183 -98.3294 246° West 269 310 28,000  Level Fort Worth Center
12:05PM 32.1864 -98.4075 244° Southwest 264 304 28,000 -300 Level Fort Worth Center
12:06PM 32.1525 -98.4808 241° Southwest 265 305 27,400  Descending Fort Worth Center
12:07PM 32.1183 -98.5564 242° Southwest 265 305 28,100 300 Climbing Fort Worth Center
12:08PM 32.0906 -98.6344 247° West 259 298 28,000 -60 Descending Fort Worth Center
12:09PM 32.0647 -98.7128 249° West 259 298 28,000  Level Fort Worth Center
12:10PM 32.0386 -98.7908 248° West 259 298 28,000  Level Fort Worth Center
12:11PM 32.0128 -98.8736 250° West 259 298 28,000  Level Fort Worth Center
12:12PM 31.9847 -98.9492 246° West 259 298 28,000  Level Fort Worth Center
12:13PM 31.9586 -99.0269 248° West 264 304 28,000  Level Fort Worth Center
12:14PM 31.9325 -99.1072 249° West 264 304 28,000  Level Fort Worth Center
12:15PM 31.9106 -99.1853 252° West 264 304 28,000  Level Fort Worth Center
12:16PM 31.8928 -99.2681 256° West 264 304 28,000  Level Fort Worth Center
12:17PM 31.8789 -99.3558 259° West 257 296 28,000  Level Fort Worth Center
12:18PM 31.8672 -99.4389 261° West 257 296 28,000  Level Fort Worth Center
12:19PM 31.8553 -99.5192 260° West 257 296 28,000  Level Fort Worth Center
12:20PM 31.8414 -99.6022 259° West 257 296 28,000  Level Fort Worth Center
12:21PM 31.8317 -99.6825 262° West 257 296 28,000  Level Fort Worth Center
12:22PM 31.8197 -99.7653 260° West 257 296 28,000  Level Fort Worth Center
12:23PM 31.8056 -99.8433 258° West 257 296 28,000  Level Fort Worth Center
12:24PM 31.7978 -99.9261 264° West 257 296 28,000  Level Fort Worth Center
12:25PM 31.7939 -100.0092 267° West 257 296 28,000  Level Fort Worth Center
12:26PM 31.7881 -100.0919 265° West 257 296 28,000  Level Fort Worth Center
12:27PM 31.7842 -100.1750 267° West 257 296 28,000  Level Fort Worth Center
12:28PM 31.7781 -100.2578 265° West 257 296 28,000  Level Fort Worth Center
12:29PM 31.7825 -100.3386 274° West 252 290 28,000  Level Fort Worth Center
12:30PM 31.7931 -100.4197 279° West 252 290 28,000 -60 Level Fort Worth Center
12:31PM 31.8058 -100.5008 281° West 258 297 27,900  Descending Fort Worth Center
12:32PM 31.8183 -100.5819 280° West 258 297 28,000  Climbing Fort Worth Center
12:33PM 31.8331 -100.6581 283° West 253 291 28,000 -420 Level Fort Worth Center
12:34PM 31.8436 -100.7392 279° West 253 291 27,200 -1,200 Descending Fort Worth Center
12:35PM 31.8578 -100.8278 281° West 259 298 25,700 -1,500 Descending Fort Worth Center
12:36PM 31.8678 -100.9211 277° West 277 319 24,300 -1,380 Descending Fort Worth Center
12:37PM 31.8839 -101.0172 281° West 287 330 23,000 -1,440 Descending Fort Worth Center
12:38PM 31.8978 -101.1106 280° West 292 336 21,500 -1,680 Descending Fort Worth Center
12:39PM 31.9117 -101.2067 280° West 297 342 19,700 -1,800 Descending Fort Worth Center
12:40PM 31.9275 -101.3053 281° West 297 342 17,900 -1,740 Descending Fort Worth Center
12:41PM 31.9372 -101.3936 277° West 291 335 16,300 -1,680 Descending Fort Worth Center
12:42PM 31.9556 -101.4778 284° West 281 323 14,600 -1,800 Descending Fort Worth Center
12:43PM 31.9844 -101.5525 295° West 265 305 12,700 -1,800 Descending Fort Worth Center
12:44PM 32.0131 -101.6272 294° West 254 292 11,000 -1,800 Descending Fort Worth Center
12:45PM 32.0358 -101.6969 291° West 244 281 9,200 -2,040 Descending Fort Worth Center
12:46PM 32.0586 -101.7642 292° West 232 267 7,000 -2,100 Descending Fort Worth Center
12:47PM 32.0833 -101.8292 294° West 226 260 5,000 -1,320 Descending Fort Worth Center
12:48PM 32.0875 -101.8931 274° West 212 244 4,500 -300 Descending Fort Worth Center
12:49PM 32.1061 -101.9553 289° West 212 244 4,400 11,700 Descending Fort Worth Center
12:50PM 32.1203 -102.0247 284° West 212 244 28,000 11,880 Climbing Fort Worth Center
12:51PM 32.1325 -102.0914 282° West 212 244 28,000  Level Fort Worth Center
12:52PM 32.1464 -102.1608 283° West 212 244 28,000  Level Fort Worth Center
12:53PM 32.1481 -102.1733 279° West 212 244 28,000  Level Fort Worth Center
12:56PM 32.0695 -102.1231 152° Southeast  Level FlightAware Approximate
01:03PM 32.0333 -102.1000 151° Southeast  Level FlightAware Approximate